Архив погоды в Туле

Метеограмма Тула
Вторник, 25 Июня
Время местн. Темп Ветер Видим Явления Облачность нижн/средн/верх Атм. давл. Влжн Точка росы ВНГО R Сост. почвы Tg s
Напр Скр Прв ур.ст ур.м изм
06:00 +14.9° С,С-В 1 - 10 км - преимущественно облачно 752 770 +1.1 62% +7.8° более 2.5 км - - - -
03:00 +14° С 1 - 10 км - ясно 751 769 +0.5 67% +8° более 2.5 км - - - -
00:00 +16.2° С 1 - 10 км - ясно 750 769 +1.1 58% +8° более 2.5 км - - - -
Понедельник, 24 Июня
Время местн. Темп Ветер Видим Явления Облачность нижн/средн/верх Атм. давл. Влжн Точка росы ВНГО R Сост. почвы Tg s
Напр Скр Прв ур.ст ур.м изм
21:00 +20.6° С 1 - 10 км - переменная облачность 749 767 +0.6 44% +8° 1.5 км 0 - - -
18:00 +24.3° С 3 - 10 км - переменная облачность 749 767 -0.2 30% +5.6° 1.5 км - - - -
15:00 +24.2° С 2 - 10 км - переменная облачность 749 767 +0.1 39% +9.5° 1.5 км - - - -
12:00 +22.2° С,С-В 2 - 10 км - переменная облачность 749 767 -0.2 49% +11° 1.5 км - - - -
09:00 +18.7° С,С-В 2 - 10 км небо без изменений {ливневые осадки} переменная облачность 749 767 +0.8 65% +12° более 2.5 км 18 Влажная (без луж) - -
06:00 +14.7° С 3 - 10 км - преимущественно облачно 748 767 +0.5 84% +12.1° более 2.5 км - - - -
03:00 +14.8° С,С-В 3 - 10 км слабый ливневый дождь {гроза} облачно 748 766 +0.1 87% +12.7° 1 км - - - -
00:00 +16.6° С-В 1 - 10 км слабый ливневый дождь {гроза} облачно 748 766 +1.3 94% +15.7° 1 км - - - -
Воскресенье, 23 Июня
Время местн. Темп Ветер Видим Явления Облачность нижн/средн/верх Атм. давл. Влжн Точка росы ВНГО R Сост. почвы Tg s
Напр Скр Прв ур.ст ур.м изм
21:00 +22.9° С-В 1 - 10 км - облачно 746 764 +0.1 63% +15.4° 1 км 0 - - -
18:00 +26° С 3 - 10 км - преимущественно облачно 746 764 -0.3 52% +15.4° 1 км - - - -
15:00 +27.8° С 1 - 10 км - переменная облачность 747 764 -0.3 49% +16.1° 1.5 км - - - -
12:00 +26.5° С 3 - 10 км - переменная облачность 747 764 -0.2 54% +16.5° - - - - -
09:00 +23.4° С,С-В 2 - 10 км - облачно с прояснениями 747 765 +0.4 64% +16.1° - 0 Сухая (без трещин) - -
06:00 +20° С 2 - 10 км - переменная облачность 747 765 +0.8 80% +16.4° - - - - -
03:00 +18° Ю 1 - 10 км - переменная облачность 746 764 +0.8 83% +15° более 2.5 км - - - -
00:00 +22.2° З 1 - 10 км - переменная облачность 745 763 +0.3 61% +14.4° - - - - -
Суббота, 22 Июня
Время местн. Темп Ветер Видим Явления Облачность нижн/средн/верх Атм. давл. Влжн Точка росы ВНГО R Сост. почвы Tg s
Напр Скр Прв ур.ст ур.м изм
21:00 +26.6° Ю,Ю-З 1 - 10 км - переменная облачность 745 762 0 42% +12.5° более 2.5 км 0 - - -
18:00 +31° З,Ю-З 3 - 10 км - переменная облачность 745 762 -0.8 26% +9° 1.5 км - - - -
15:00 +31.9° Ю-З 3 - 10 км - переменная облачность 746 763 +0.4 23% +7.9° 1.5 км - - - -
12:00 +29.1° Ю,Ю-З 4 - 10 км - переменная облачность 746 763 +0.2 32% +10.5° более 2.5 км - - - -
09:00 +24.5° Ю 3 - 10 км - облачно с прояснениями 746 763 +0.2 53% +14.2° - 0 Сухая (без трещин) - -
06:00 +21.5° Ю 2 - 10 км - облачно с прояснениями 746 763 +0.1 58% +12.9° - - - - -
03:00 +18.4° штиль 0 - 10 км - переменная облачность 746 764 0 74% +13.7° - - - - -